sensor_id;sensor_type;location;lat;lon;timestamp;temperature;humidity
71551;DHT22;59367;48.414;9.872;2023-05-28T00:01:03;13.72587204;59.53979492
71551;DHT22;59367;48.414;9.872;2023-05-28T00:02:10;13.68314743;59.50317383
71551;DHT22;59367;48.414;9.872;2023-05-28T00:03:17;13.6671257;59.72747803
71551;DHT22;59367;48.414;9.872;2023-05-28T00:04:24;13.64042282;59.82666016
71551;DHT22;59367;48.414;9.872;2023-05-28T00:05:31;13.5976944;59.83123779
71551;DHT22;59367;48.414;9.872;2023-05-28T00:06:37;13.5976944;59.79919434
71551;DHT22;59367;48.414;9.872;2023-05-28T00:07:44;13.56832123;59.67102051
71551;DHT22;59367;48.414;9.872;2023-05-28T00:08:51;13.54161835;59.94720459
71551;DHT22;59367;48.414;9.872;2023-05-28T00:09:58;13.52826691;59.97467041
71551;DHT22;59367;48.414;9.872;2023-05-28T00:11:05;13.52826691;60.17150879
71551;DHT22;59367;48.414;9.872;2023-05-28T00:12:12;13.51224518;60.14862061
71551;DHT22;59367;48.414;9.872;2023-05-28T00:13:18;13.4855423;60.26763916
71551;DHT22;59367;48.414;9.872;2023-05-28T00:14:25;13.47219086;60.16235352
71551;DHT22;59367;48.414;9.872;2023-05-28T00:15:32;13.44281769;60.08758545
71551;DHT22;59367;48.414;9.872;2023-05-28T00:16:39;13.42946625;60.35308838
71551;DHT22;59367;48.414;9.872;2023-05-28T00:17:46;13.41344452;60.35003662
71551;DHT22;59367;48.414;9.872;2023-05-28T00:18:53;13.41344452;60.48278809
71551;DHT22;59367;48.414;9.872;2023-05-28T00:20:00;13.38674164;60.4309082
71551;DHT22;59367;48.414;9.872;2023-05-28T00:21:07;13.37338638;60.37597656
71551;DHT22;59367;48.414;9.872;2023-05-28T00:22:14;13.38674164;60.4309082
71551;DHT22;59367;48.414;9.872;2023-05-28T00:23:21;13.35736465;60.36224365
71551;DHT22;59367;48.414;9.872;2023-05-28T00:24:28;13.34401321;60.39123535
71551;DHT22;59367;48.414;9.872;2023-05-28T00:25:34;13.31731033;60.40802002
71551;DHT22;59367;48.414;9.872;2023-05-28T00:26:41;13.31731033;60.23406982
71551;DHT22;59367;48.414;9.872;2023-05-28T00:27:48;13.33066177;60.30731201
71551;DHT22;59367;48.414;9.872;2023-05-28T00:28:55;13.33066177;60.52246094
71551;DHT22;59367;48.414;9.872;2023-05-28T00:30:02;13.27458572;60.51483154
71551;DHT22;59367;48.414;9.872;2023-05-28T00:31:09;13.27458572;60.52703857
71551;DHT22;59367;48.414;9.872;2023-05-28T00:32:16;13.27458572;60.53619385
71551;DHT22;59367;48.414;9.872;2023-05-28T00:33:23;13.24521255;60.45837402
71551;DHT22;59367;48.414;9.872;2023-05-28T00:34:30;13.23186111;60.35461426
71551;DHT22;59367;48.414;9.872;2023-05-28T00:35:37;13.23186111;60.496521
71551;DHT22;59367;48.414;9.872;2023-05-28T00:36:44;13.20248795;60.52703857
71551;DHT22;59367;48.414;9.872;2023-05-28T00:37:51;13.18913651;60.38970947
71551;DHT22;59367;48.414;9.872;2023-05-28T00:38:57;13.18913651;60.38970947
71551;DHT22;59367;48.414;9.872;2023-05-28T00:40:05;13.1464119;60.25848389
71551;DHT22;59367;48.414;9.872;2023-05-28T00:41:12;13.15976334;60.19897461
71551;DHT22;59367;48.414;9.872;2023-05-28T00:42:19;13.13306046;60.31799316
71551;DHT22;59367;48.414;9.872;2023-05-28T00:43:25;13.1197052;60.35766602
71551;DHT22;59367;48.414;9.872;2023-05-28T00:44:32;13.07698059;60.41412354
71551;DHT22;59367;48.414;9.872;2023-05-28T00:45:39;13.10368347;60.4598999
71551;DHT22;59367;48.414;9.872;2023-05-28T00:46:47;13.07698059;60.47363281
71551;DHT22;59367;48.414;9.872;2023-05-28T00:47:54;13.07698059;60.41412354
71551;DHT22;59367;48.414;9.872;2023-05-28T00:49:02;13.00488281;60.3729248
71551;DHT22;59367;48.414;9.872;2023-05-28T00:50:10;13.00488281;60.3729248
71551;DHT22;59367;48.414;9.872;2023-05-28T00:51:18;12.97817993;60.29510498
71551;DHT22;59367;48.414;9.872;2023-05-28T00:52:25;12.97817993;60.24475098
71551;DHT22;59367;48.414;9.872;2023-05-28T00:53:32;12.96482849;60.22186279
71551;DHT22;59367;48.414;9.872;2023-05-28T00:54:40;12.94880676;60.11657715
71551;DHT22;59367;48.414;9.872;2023-05-28T00:55:47;12.94880676;60.28137207
71551;DHT22;59367;48.414;9.872;2023-05-28T00:56:54;12.93545532;60.206604
71551;DHT22;59367;48.414;9.872;2023-05-28T00:58:02;12.87670898;60.3225708
71551;DHT22;59367;48.414;9.872;2023-05-28T00:59:09;12.87670898;60.12573242
71551;DHT22;59367;48.414;9.872;2023-05-28T01:00:17;12.86335373;60.32104492
71551;DHT22;59367;48.414;9.872;2023-05-28T01:01:24;12.847332;60.3805542
71551;DHT22;59367;48.414;9.872;2023-05-28T01:02:32;12.80727768;60.43548584
71551;DHT22;59367;48.414;9.872;2023-05-28T01:03:40;12.80727768;60.51940918
71551;DHT22;59367;48.414;9.872;2023-05-28T01:04:47;12.79125595;60.49499512
71551;DHT22;59367;48.414;9.872;2023-05-28T01:05:54;12.75120163;60.58197021
71551;DHT22;59367;48.414;9.872;2023-05-28T01:07:01;12.7351799;60.63232422
71551;DHT22;59367;48.414;9.872;2023-05-28T01:08:09;12.7351799;60.74371338
71551;DHT22;59367;48.414;9.872;2023-05-28T01:09:16;12.70847702;60.72998047
71551;DHT22;59367;48.414;9.872;2023-05-28T01:10:24;12.69245529;60.86120605
71551;DHT22;59367;48.414;9.872;2023-05-28T01:11:31;12.65240097;60.87646484
71551;DHT22;59367;48.414;9.872;2023-05-28T01:12:39;12.63637924;60.78033447
71551;DHT22;59367;48.414;9.872;2023-05-28T01:13:47;12.63637924;60.92529297
71551;DHT22;59367;48.414;9.872;2023-05-28T01:14:54;12.59632111;61.02142334
71551;DHT22;59367;48.414;9.872;2023-05-28T01:16:01;12.58029938;61.12213135
71551;DHT22;59367;48.414;9.872;2023-05-28T01:17:08;12.56694794;61.14044189
71551;DHT22;59367;48.414;9.872;2023-05-28T01:18:16;12.56694794;61.09924316
71551;DHT22;59367;48.414;9.872;2023-05-28T01:19:25;12.5535965;61.05499268
71551;DHT22;59367;48.414;9.872;2023-05-28T01:20:32;12.5535965;61.02600098
71551;DHT22;59367;48.414;9.872;2023-05-28T01:21:43;12.53757477;61.14654541
71551;DHT22;59367;48.414;9.872;2023-05-28T01:22:58;12.53757477;61.03210449
71551;DHT22;59367;48.414;9.872;2023-05-28T01:24:06;12.49752045;60.91308594
71551;DHT22;59367;48.414;9.872;2023-05-28T01:25:15;12.51087189;60.99853516
71551;DHT22;59367;48.414;9.872;2023-05-28T01:26:22;12.48149872;60.98175049
71551;DHT22;59367;48.414;9.872;2023-05-28T01:27:30;12.46814728;61.02142334
71551;DHT22;59367;48.414;9.872;2023-05-28T01:28:37;12.46814728;60.97259521
71551;DHT22;59367;48.414;9.872;2023-05-28T01:29:44;12.43877411;61.00921631
71551;DHT22;59367;48.414;9.872;2023-05-28T01:30:51;12.41207123;61.13739014
71551;DHT22;59367;48.414;9.872;2023-05-28T01:31:58;12.41207123;61.22894287
71551;DHT22;59367;48.414;9.872;2023-05-28T01:33:05;12.38269806;61.16485596
71551;DHT22;59367;48.414;9.872;2023-05-28T01:34:13;12.3693428;61.25488281
71551;DHT22;59367;48.414;9.872;2023-05-28T01:35:20;12.3693428;61.25488281
71551;DHT22;59367;48.414;9.872;2023-05-28T01:36:32;12.35599136;61.23199463
71551;DHT22;59367;48.414;9.872;2023-05-28T01:37:43;12.32661819;61.07330322
71551;DHT22;59367;48.414;9.872;2023-05-28T01:38:52;12.32661819;61.18621826
71551;DHT22;59367;48.414;9.872;2023-05-28T01:40:00;12.32661819;61.15570068
71551;DHT22;59367;48.414;9.872;2023-05-28T01:41:08;12.31326675;61.12365723
71551;DHT22;59367;48.414;9.872;2023-05-28T01:42:15;12.28389359;61.10839844
71551;DHT22;59367;48.414;9.872;2023-05-28T01:43:23;12.29991531;61.10076904
71551;DHT22;59367;48.414;9.872;2023-05-28T01:44:30;12.27054214;61.02294922
71551;DHT22;59367;48.414;9.872;2023-05-28T01:45:38;12.22781754;61.02752686
71551;DHT22;59367;48.414;9.872;2023-05-28T01:46:46;12.21446609;61.18164063
71551;DHT22;59367;48.414;9.872;2023-05-28T01:47:54;12.21446609;61.30218506
71551;DHT22;59367;48.414;9.872;2023-05-28T01:49:01;12.22781754;61.07788086
71551;DHT22;59367;48.414;9.872;2023-05-28T01:50:09;12.17174149;60.99853516
71551;DHT22;59367;48.414;9.872;2023-05-28T01:51:18;12.18776321;60.9588623
71551;DHT22;59367;48.414;9.872;2023-05-28T01:52:28;12.15839005;60.90393066
71551;DHT22;59367;48.414;9.872;2023-05-28T01:53:34;12.15839005;60.87493896
71551;DHT22;59367;48.414;9.872;2023-05-28T01:54:41;12.1450386;61.01379395
71551;DHT22;59367;48.414;9.872;2023-05-28T01:55:48;12.12901688;60.94055176
71551;DHT22;59367;48.414;9.872;2023-05-28T01:56:55;12.11566162;60.83831787
71551;DHT22;59367;48.414;9.872;2023-05-28T01:58:02;12.09963989;60.78338623
71551;DHT22;59367;48.414;9.872;2023-05-28T01:59:09;12.05691528;60.92071533
71551;DHT22;59367;48.414;9.872;2023-05-28T02:00:17;12.0302124;60.78338623
71551;DHT22;59367;48.414;9.872;2023-05-28T02:01:32;12.04356384;60.76507568
71551;DHT22;59367;48.414;9.872;2023-05-28T02:02:39;12.01419067;60.78033447
71551;DHT22;59367;48.414;9.872;2023-05-28T02:03:46;12.00083923;60.76965332
71551;DHT22;59367;48.414;9.872;2023-05-28T02:04:53;12.00083923;60.75744629
71551;DHT22;59367;48.414;9.872;2023-05-28T02:06:00;11.98748779;60.81695557
71551;DHT22;59367;48.414;9.872;2023-05-28T02:07:07;11.94476318;60.74829102
71551;DHT22;59367;48.414;9.872;2023-05-28T02:08:14;11.93141174;60.77880859
71551;DHT22;59367;48.414;9.872;2023-05-28T02:09:21;11.91539001;60.74371338
71551;DHT22;59367;48.414;9.872;2023-05-28T02:10:28;11.91539001;60.9085083
71551;DHT22;59367;48.414;9.872;2023-05-28T02:11:34;11.88868713;60.92681885
71551;DHT22;59367;48.414;9.872;2023-05-28T02:12:41;11.84595871;60.92071533
71551;DHT22;59367;48.414;9.872;2023-05-28T02:13:48;11.85931015;60.98175049
71551;DHT22;59367;48.414;9.872;2023-05-28T02:14:55;11.83260727;61.05041504
71551;DHT22;59367;48.414;9.872;2023-05-28T02:16:02;11.8032341;61.03668213
71551;DHT22;59367;48.414;9.872;2023-05-28T02:17:09;11.78988266;61.04431152
71551;DHT22;59367;48.414;9.872;2023-05-28T02:18:16;11.76050949;61.12213135
71551;DHT22;59367;48.414;9.872;2023-05-28T02:19:23;11.77653122;61.18621826
71551;DHT22;59367;48.414;9.872;2023-05-28T02:20:30;11.74715805;61.26403809
71551;DHT22;59367;48.414;9.872;2023-05-28T02:21:37;11.74715805;61.27319336
71551;DHT22;59367;48.414;9.872;2023-05-28T02:22:44;11.72045517;61.22894287
71551;DHT22;59367;48.414;9.872;2023-05-28T02:23:51;11.691082;61.19537354
71551;DHT22;59367;48.414;9.872;2023-05-28T02:24:58;11.67773056;61.12823486
71551;DHT22;59367;48.414;9.872;2023-05-28T02:26:05;11.67773056;61.16027832
71551;DHT22;59367;48.414;9.872;2023-05-28T02:27:12;11.66170883;61.0458374
71551;DHT22;59367;48.414;9.872;2023-05-28T02:28:19;11.64835739;61.23657227
71551;DHT22;59367;48.414;9.872;2023-05-28T02:29:26;11.6216507;61.39831543
71551;DHT22;59367;48.414;9.872;2023-05-28T02:30:32;11.60562897;61.2411499
71551;DHT22;59367;48.414;9.872;2023-05-28T02:31:40;11.59227753;61.27929688
71551;DHT22;59367;48.414;9.872;2023-05-28T02:32:47;11.57892609;61.28845215
71551;DHT22;59367;48.414;9.872;2023-05-28T02:33:54;11.56557465;61.31591797
71551;DHT22;59367;48.414;9.872;2023-05-28T02:35:01;11.52285004;61.37390137
71551;DHT22;59367;48.414;9.872;2023-05-28T02:36:08;11.53620148;61.40594482
71551;DHT22;59367;48.414;9.872;2023-05-28T02:37:15;11.50682831;61.45324707
71551;DHT22;59367;48.414;9.872;2023-05-28T02:38:22;11.49347687;61.42883301
71551;DHT22;59367;48.414;9.872;2023-05-28T02:39:30;11.46677399;61.41662598
71551;DHT22;59367;48.414;9.872;2023-05-28T02:40:37;11.48012543;61.35559082
71551;DHT22;59367;48.414;9.872;2023-05-28T02:41:44;11.49347687;61.28692627
71551;DHT22;59367;48.414;9.872;2023-05-28T02:42:51;11.46677399;61.48834229
71551;DHT22;59367;48.414;9.872;2023-05-28T02:43:57;11.43740082;61.64550781
71551;DHT22;59367;48.414;9.872;2023-05-28T02:45:05;11.43740082;61.74926758
71551;DHT22;59367;48.414;9.872;2023-05-28T02:46:12;11.39467621;61.54785156
71551;DHT22;59367;48.414;9.872;2023-05-28T02:47:19;11.40802765;61.61193848
71551;DHT22;59367;48.414;9.872;2023-05-28T02:48:26;11.36796951;61.69891357
71551;DHT22;59367;48.414;9.872;2023-05-28T02:49:33;11.38132477;61.88354492
71551;DHT22;59367;48.414;9.872;2023-05-28T02:50:40;11.35194778;61.94152832
71551;DHT22;59367;48.414;9.872;2023-05-28T02:51:47;11.32257462;61.93695068
71551;DHT22;59367;48.414;9.872;2023-05-28T02:52:54;11.32257462;62.01934814
71551;DHT22;59367;48.414;9.872;2023-05-28T02:54:01;11.33859634;62.01019287
71551;DHT22;59367;48.414;9.872;2023-05-28T02:55:08;11.27985001;61.92016602
71551;DHT22;59367;48.414;9.872;2023-05-28T02:56:15;11.29320145;61.89117432
71551;DHT22;59367;48.414;9.872;2023-05-28T02:57:22;11.27985001;61.89727783
71551;DHT22;59367;48.414;9.872;2023-05-28T02:58:29;11.29320145;62.02545166
71551;DHT22;59367;48.414;9.872;2023-05-28T02:59:36;11.26649857;62.02087402
71551;DHT22;59367;48.414;9.872;2023-05-28T03:00:43;11.26649857;62.0513916
71551;DHT22;59367;48.414;9.872;2023-05-28T03:01:50;11.25047684;61.98730469
71551;DHT22;59367;48.414;9.872;2023-05-28T03:02:57;11.2371254;62.01629639
71551;DHT22;59367;48.414;9.872;2023-05-28T03:04:04;11.2371254;61.9430542
71551;DHT22;59367;48.414;9.872;2023-05-28T03:05:11;11.2371254;61.90185547
71551;DHT22;59367;48.414;9.872;2023-05-28T03:06:18;11.22377396;61.92321777
71551;DHT22;59367;48.414;9.872;2023-05-28T03:07:25;11.19440079;62.0300293
71551;DHT22;59367;48.414;9.872;2023-05-28T03:08:31;11.21042252;62.15362549
71551;DHT22;59367;48.414;9.872;2023-05-28T03:09:39;11.19440079;61.96899414
71551;DHT22;59367;48.414;9.872;2023-05-28T03:10:46;11.19440079;62.0300293
71551;DHT22;59367;48.414;9.872;2023-05-28T03:11:53;11.19440079;61.99798584
71551;DHT22;59367;48.414;9.872;2023-05-28T03:12:59;11.19440079;62.01934814
71551;DHT22;59367;48.414;9.872;2023-05-28T03:14:06;11.19440079;62.06970215
71551;DHT22;59367;48.414;9.872;2023-05-28T03:15:13;11.16769791;61.89117432
71551;DHT22;59367;48.414;9.872;2023-05-28T03:16:20;11.15434647;61.90032959
71551;DHT22;59367;48.414;9.872;2023-05-28T03:17:27;11.16769791;62.19940186
71551;DHT22;59367;48.414;9.872;2023-05-28T03:18:34;11.18104935;62.12005615
71551;DHT22;59367;48.414;9.872;2023-05-28T03:19:42;11.13832474;62.21313477
71551;DHT22;59367;48.414;9.872;2023-05-28T03:20:48;11.13832474;62.0513916
71551;DHT22;59367;48.414;9.872;2023-05-28T03:21:55;11.13832474;62.18414307
71551;DHT22;59367;48.414;9.872;2023-05-28T03:23:02;11.15434647;62.05291748
71551;DHT22;59367;48.414;9.872;2023-05-28T03:24:10;11.15434647;61.97052002
71551;DHT22;59367;48.414;9.872;2023-05-28T03:25:17;11.15434647;61.96136475
71551;DHT22;59367;48.414;9.872;2023-05-28T03:26:24;11.13832474;62.18414307
71551;DHT22;59367;48.414;9.872;2023-05-28T03:27:30;11.13832474;62.46948242
71551;DHT22;59367;48.414;9.872;2023-05-28T03:28:37;11.13832474;62.24517822
71551;DHT22;59367;48.414;9.872;2023-05-28T03:29:44;11.13832474;62.02087402
71551;DHT22;59367;48.414;9.872;2023-05-28T03:30:51;11.12496948;61.78283691
71551;DHT22;59367;48.414;9.872;2023-05-28T03:31:57;11.13832474;61.73553467
71551;DHT22;59367;48.414;9.872;2023-05-28T03:33:04;11.13832474;61.64093018
71551;DHT22;59367;48.414;9.872;2023-05-28T03:34:11;11.13832474;61.48986816
71551;DHT22;59367;48.414;9.872;2023-05-28T03:35:19;11.12496948;61.39373779
71551;DHT22;59367;48.414;9.872;2023-05-28T03:36:25;11.12496948;61.4654541
71551;DHT22;59367;48.414;9.872;2023-05-28T03:37:32;11.09559631;61.36016846
71551;DHT22;59367;48.414;9.872;2023-05-28T03:38:39;11.08224487;61.41967773
71551;DHT22;59367;48.414;9.872;2023-05-28T03:39:46;11.11161804;61.4944458
71551;DHT22;59367;48.414;9.872;2023-05-28T03:40:53;11.08224487;61.45782471
71551;DHT22;59367;48.414;9.872;2023-05-28T03:42:00;11.06889343;61.41662598
71551;DHT22;59367;48.414;9.872;2023-05-28T03:43:07;11.06889343;61.42578125
71551;DHT22;59367;48.414;9.872;2023-05-28T03:44:14;11.05554199;61.32049561
71551;DHT22;59367;48.414;9.872;2023-05-28T03:45:21;11.03952026;61.30981445
71551;DHT22;59367;48.414;9.872;2023-05-28T03:46:28;11.05554199;61.29150391
71551;DHT22;59367;48.414;9.872;2023-05-28T03:47:35;11.02616882;61.28692627
71551;DHT22;59367;48.414;9.872;2023-05-28T03:48:42;11.02616882;61.28692627
71551;DHT22;59367;48.414;9.872;2023-05-28T03:49:48;11.02616882;61.38916016
71551;DHT22;59367;48.414;9.872;2023-05-28T03:50:55;11.01281738;61.32507324
71551;DHT22;59367;48.414;9.872;2023-05-28T03:52:02;10.99946594;61.48834229
71551;DHT22;59367;48.414;9.872;2023-05-28T03:53:09;10.99946594;61.54937744
71551;DHT22;59367;48.414;9.872;2023-05-28T03:54:16;10.99946594;61.6317749
71551;DHT22;59367;48.414;9.872;2023-05-28T03:55:23;10.97009277;61.69891357
71551;DHT22;59367;48.414;9.872;2023-05-28T03:56:30;10.98344421;61.60736084
71551;DHT22;59367;48.414;9.872;2023-05-28T03:57:37;10.95674133;61.82861328
71551;DHT22;59367;48.414;9.872;2023-05-28T03:58:44;10.95674133;61.84997559
71551;DHT22;59367;48.414;9.872;2023-05-28T03:59:50;10.95674133;61.80877686
71551;DHT22;59367;48.414;9.872;2023-05-28T04:00:57;10.95674133;61.84997559
71551;DHT22;59367;48.414;9.872;2023-05-28T04:02:04;10.95674133;61.94152832
71551;DHT22;59367;48.414;9.872;2023-05-28T04:03:11;10.92736816;62.01934814
71551;DHT22;59367;48.414;9.872;2023-05-28T04:04:18;10.9407196;62.16278076
71551;DHT22;59367;48.414;9.872;2023-05-28T04:05:25;10.95674133;62.37182617
71551;DHT22;59367;48.414;9.872;2023-05-28T04:06:31;10.9407196;62.39013672
71551;DHT22;59367;48.414;9.872;2023-05-28T04:07:38;10.92736816;62.42828369
71551;DHT22;59367;48.414;9.872;2023-05-28T04:08:45;10.95674133;62.46337891
71551;DHT22;59367;48.414;9.872;2023-05-28T04:09:52;10.9407196;62.40997314
71551;DHT22;59367;48.414;9.872;2023-05-28T04:10:59;10.95674133;62.45422363
71551;DHT22;59367;48.414;9.872;2023-05-28T04:12:06;10.98344421;62.550354
71551;DHT22;59367;48.414;9.872;2023-05-28T04:13:13;10.98344421;62.51983643
71551;DHT22;59367;48.414;9.872;2023-05-28T04:14:20;11.01281738;62.56408691
71551;DHT22;59367;48.414;9.872;2023-05-28T04:15:27;10.99946594;62.52288818
71551;DHT22;59367;48.414;9.872;2023-05-28T04:16:34;10.99946594;62.55187988
71551;DHT22;59367;48.414;9.872;2023-05-28T04:17:41;11.01281738;62.56408691
71551;DHT22;59367;48.414;9.872;2023-05-28T04:18:48;11.02616882;62.55645752
71551;DHT22;59367;48.414;9.872;2023-05-28T04:19:56;11.03952026;62.53662109
71551;DHT22;59367;48.414;9.872;2023-05-28T04:21:03;11.03952026;62.54730225
71551;DHT22;59367;48.414;9.872;2023-05-28T04:22:10;11.03952026;62.59765625
71551;DHT22;59367;48.414;9.872;2023-05-28T04:23:17;11.05554199;62.49084473
71551;DHT22;59367;48.414;9.872;2023-05-28T04:24:23;11.03952026;62.65106201
71551;DHT22;59367;48.414;9.872;2023-05-28T04:25:30;11.06889343;62.65563965
71551;DHT22;59367;48.414;9.872;2023-05-28T04:26:37;11.11161804;62.60986328
71551;DHT22;59367;48.414;9.872;2023-05-28T04:27:44;11.09559631;62.66937256
71551;DHT22;59367;48.414;9.872;2023-05-28T04:28:51;11.13832474;62.7166748
71551;DHT22;59367;48.414;9.872;2023-05-28T04:29:58;11.15434647;62.53662109
71551;DHT22;59367;48.414;9.872;2023-05-28T04:31:05;11.16769791;62.61901855
71551;DHT22;59367;48.414;9.872;2023-05-28T04:32:12;11.16769791;62.68920898
71551;DHT22;59367;48.414;9.872;2023-05-28T04:33:19;11.15434647;62.72888184
71551;DHT22;59367;48.414;9.872;2023-05-28T04:34:26;11.19440079;62.81738281
71551;DHT22;59367;48.414;9.872;2023-05-28T04:35:33;11.19440079;62.87994385
71551;DHT22;59367;48.414;9.872;2023-05-28T04:36:40;11.21042252;62.90283203
71551;DHT22;59367;48.414;9.872;2023-05-28T04:37:47;11.25047684;63.11340332
71551;DHT22;59367;48.414;9.872;2023-05-28T04:38:54;11.25047684;63.10424805
71551;DHT22;59367;48.414;9.872;2023-05-28T04:40:00;11.27985001;63.13781738
71551;DHT22;59367;48.414;9.872;2023-05-28T04:41:07;11.29320145;63.14086914
71551;DHT22;59367;48.414;9.872;2023-05-28T04:42:15;11.35194778;63.21105957
71551;DHT22;59367;48.414;9.872;2023-05-28T04:43:22;11.38132477;63.36975098
71551;DHT22;59367;48.414;9.872;2023-05-28T04:44:29;11.39467621;63.44299316
71551;DHT22;59367;48.414;9.872;2023-05-28T04:45:36;11.40802765;63.37432861
71551;DHT22;59367;48.414;9.872;2023-05-28T04:46:43;11.45075226;63.3895874
71551;DHT22;59367;48.414;9.872;2023-05-28T04:47:51;11.45075226;63.27819824
71551;DHT22;59367;48.414;9.872;2023-05-28T04:48:58;11.50682831;63.13323975
71551;DHT22;59367;48.414;9.872;2023-05-28T04:50:05;11.52285004;63.14544678
71551;DHT22;59367;48.414;9.872;2023-05-28T04:51:12;11.56557465;63.2232666
71551;DHT22;59367;48.414;9.872;2023-05-28T04:52:18;11.59227753;63.29193115
71551;DHT22;59367;48.414;9.872;2023-05-28T04:53:25;11.59227753;63.42163086
71551;DHT22;59367;48.414;9.872;2023-05-28T04:54:32;11.60562897;63.29193115
71551;DHT22;59367;48.414;9.872;2023-05-28T04:55:39;11.64835739;63.26599121
71551;DHT22;59367;48.414;9.872;2023-05-28T04:56:46;11.66170883;63.30108643
71551;DHT22;59367;48.414;9.872;2023-05-28T04:57:53;11.70443344;63.41094971
71551;DHT22;59367;48.414;9.872;2023-05-28T04:59:00;11.73380661;63.44451904
71551;DHT22;59367;48.414;9.872;2023-05-28T05:00:08;11.73380661;63.60015869
71551;DHT22;59367;48.414;9.872;2023-05-28T05:01:15;11.76050949;63.70544434
71551;DHT22;59367;48.414;9.872;2023-05-28T05:02:22;11.8032341;63.78631592
71551;DHT22;59367;48.414;9.872;2023-05-28T05:03:29;11.8032341;63.70391846
71551;DHT22;59367;48.414;9.872;2023-05-28T05:04:36;11.81658554;63.77716064
71551;DHT22;59367;48.414;9.872;2023-05-28T05:05:43;11.84595871;63.84277344
71551;DHT22;59367;48.414;9.872;2023-05-28T05:06:50;11.87533569;63.87939453
71551;DHT22;59367;48.414;9.872;2023-05-28T05:07:57;11.87533569;63.89770508
71551;DHT22;59367;48.414;9.872;2023-05-28T05:09:04;11.91539001;63.9465332
71551;DHT22;59367;48.414;9.872;2023-05-28T05:10:13;11.95811462;63.87023926
71551;DHT22;59367;48.414;9.872;2023-05-28T05:11:20;11.98748779;64.12200928
71551;DHT22;59367;48.414;9.872;2023-05-28T05:12:27;12.00083923;64.13421631
71551;DHT22;59367;48.414;9.872;2023-05-28T05:13:33;12.05691528;64.16320801
71551;DHT22;59367;48.414;9.872;2023-05-28T05:14:41;12.07026672;64.09301758
71551;DHT22;59367;48.414;9.872;2023-05-28T05:15:47;12.11566162;63.88702393
71551;DHT22;59367;48.414;9.872;2023-05-28T05:16:55;12.12901688;64.012146
71551;DHT22;59367;48.414;9.872;2023-05-28T05:18:02;12.17174149;64.25323486
71551;DHT22;59367;48.414;9.872;2023-05-28T05:19:09;12.21446609;64.40582275
71551;DHT22;59367;48.414;9.872;2023-05-28T05:20:15;12.2571907;64.28985596
71551;DHT22;59367;48.414;9.872;2023-05-28T05:21:22;12.27054214;64.19830322
71551;DHT22;59367;48.414;9.872;2023-05-28T05:22:29;12.31326675;64.08996582
71551;DHT22;59367;48.414;9.872;2023-05-28T05:23:36;12.34263992;63.5848999
71551;DHT22;59367;48.414;9.872;2023-05-28T05:24:44;12.38269806;63.54827881
71551;DHT22;59367;48.414;9.872;2023-05-28T05:25:51;12.41207123;63.5848999
71551;DHT22;59367;48.414;9.872;2023-05-28T05:26:58;12.43877411;63.45367432
71551;DHT22;59367;48.414;9.872;2023-05-28T05:28:05;12.51087189;63.55895996
71551;DHT22;59367;48.414;9.872;2023-05-28T05:29:12;12.52422333;63.60321045
71551;DHT22;59367;48.414;9.872;2023-05-28T05:30:19;12.5535965;63.3605957
71551;DHT22;59367;48.414;9.872;2023-05-28T05:31:26;12.58029938;63.60015869
71551;DHT22;59367;48.414;9.872;2023-05-28T05:32:32;12.63637924;63.7008667
71551;DHT22;59367;48.414;9.872;2023-05-28T05:33:39;12.66575241;63.80004883
71551;DHT22;59367;48.414;9.872;2023-05-28T05:34:46;12.69245529;63.80462646
71551;DHT22;59367;48.414;9.872;2023-05-28T05:35:53;12.75120163;63.91448975
71551;DHT22;59367;48.414;9.872;2023-05-28T05:37:00;12.77790451;63.59100342
71551;DHT22;59367;48.414;9.872;2023-05-28T05:38:07;12.83398056;63.4765625
71551;DHT22;59367;48.414;9.872;2023-05-28T05:39:14;12.86335373;63.49029541
71551;DHT22;59367;48.414;9.872;2023-05-28T05:40:21;12.92210388;63.24310303
71551;DHT22;59367;48.414;9.872;2023-05-28T05:41:28;12.93545532;62.80212402
71551;DHT22;59367;48.414;9.872;2023-05-28T05:42:35;12.96482849;62.79449463
71551;DHT22;59367;48.414;9.872;2023-05-28T05:43:41;12.99153137;62.840271
71551;DHT22;59367;48.414;9.872;2023-05-28T05:44:48;13.02090454;62.41455078
71551;DHT22;59367;48.414;9.872;2023-05-28T05:45:55;13.09033203;62.26806641
71551;DHT22;59367;48.414;9.872;2023-05-28T05:47:02;13.1197052;62.3046875
71551;DHT22;59367;48.414;9.872;2023-05-28T05:48:09;13.15976334;62.12615967
71551;DHT22;59367;48.414;9.872;2023-05-28T05:49:16;13.20248795;61.94610596
71551;DHT22;59367;48.414;9.872;2023-05-28T05:50:23;13.258564;61.85455322
71551;DHT22;59367;48.414;9.872;2023-05-28T05:51:30;13.3012886;61.86828613
71551;DHT22;59367;48.414;9.872;2023-05-28T05:52:37;13.31731033;62.01629639
71551;DHT22;59367;48.414;9.872;2023-05-28T05:53:46;13.34401321;62.0513916
71551;DHT22;59367;48.414;9.872;2023-05-28T05:54:53;13.41344452;62.08343506
71551;DHT22;59367;48.414;9.872;2023-05-28T05:56:00;13.45616913;62.09869385
71551;DHT22;59367;48.414;9.872;2023-05-28T05:57:08;13.4855423;61.98883057
71551;DHT22;59367;48.414;9.872;2023-05-28T05:58:16;13.52826691;61.88354492